Time;durP1;ratioP1;P1;durP2;ratioP2;P2;SDS_P1;SDS_P2;PMS_P1;PMS_P2;Temp;Humidity;BMP_temperature;BMP_pressure;BME280_temperature;BME280_humidity;BME280_pressure;Samples;Min_cycle;Max_cycle;Signal;HPM_P1;HPM_P2
2021/09/21 00:01:17;;;;;;;0.70;0.70;;;;;;;;;;5085123;28;20032;-60
2021/09/21 00:03:45;;;;;;;0.63;0.63;;;;;;;;;;5085832;28;20511;-60
2021/09/21 00:06:10;;;;;;;0.70;0.70;;;;;;;;;;5085701;28;20032;-61
2021/09/21 00:08:37;;;;;;;0.85;0.70;;;;;;;;;;5068201;28;20036;-60
2021/09/21 00:11:04;;;;;;;0.63;0.63;;;;;;;;;;5065916;28;20033;-60
2021/09/21 00:13:30;;;;;;;0.80;0.80;;;;;;;;;;5066375;28;20111;-60
2021/09/21 00:15:57;;;;;;;0.70;0.70;;;;;;;;;;5065194;28;20173;-60
2021/09/21 00:18:23;;;;;;;0.70;0.63;;;;;;;;;;5065320;28;20033;-61
2021/09/21 00:20:49;;;;;;;0.60;0.60;;;;;;;;;;5066640;28;20470;-61
2021/09/21 00:23:15;;;;;;;0.65;0.65;;;;;;;;;;5085503;28;20560;-60
2021/09/21 00:25:42;;;;;;;0.60;0.60;;;;;;;;;;5085650;28;20038;-61
2021/09/21 00:28:09;;;;;;;0.70;0.70;;;;;;;;;;5085198;28;20031;-61
2021/09/21 00:30:35;;;;;;;0.73;0.60;;;;;;;;;;5080336;28;20025;-61
2021/09/21 00:33:04;;;;;;;0.70;0.70;;;;;;;;;;5066045;28;20519;-61
2021/09/21 00:35:31;;;;;;;0.65;0.65;;;;;;;;;;5065522;28;20035;-61
2021/09/21 00:37:59;;;;;;;0.60;0.60;;;;;;;;;;5064447;28;20023;-61
2021/09/21 00:40:25;;;;;;;0.65;0.65;;;;;;;;;;5085034;28;20028;-61
2021/09/21 00:42:51;;;;;;;0.60;0.60;;;;;;;;;;5085378;28;20056;-61
2021/09/21 00:45:25;;;;;;;0.55;0.55;;;;;;;;;;5085392;28;20471;-61
2021/09/21 00:47:53;;;;;;;0.70;0.70;;;;;;;;;;5084711;28;20054;-61
2021/09/21 00:50:20;;;;;;;0.50;0.50;;;;;;;;;;5085051;28;20035;-61
2021/09/21 00:52:47;;;;;;;0.60;0.60;;;;;;;;;;5084173;28;20024;-61
2021/09/21 00:55:13;;;;;;;1.10;0.60;;;;;;;;;;5084730;28;20020;-60
2021/09/21 00:57:41;;;;;;;0.52;0.52;;;;;;;;;;5085780;28;20016;-60
2021/09/21 01:00:07;;;;;;;0.60;0.60;;;;;;;;;;5084796;28;20020;-61
2021/09/21 01:02:33;;;;;;;0.60;0.60;;;;;;;;;;5085160;28;20024;-61
2021/09/21 01:05:01;;;;;;;0.70;0.70;;;;;;;;;;5085246;28;20066;-61
2021/09/21 01:07:28;;;;;;;0.50;0.50;;;;;;;;;;5066832;28;20020;-61
2021/09/21 01:10:04;;;;;;;0.70;0.70;;;;;;;;;;5084686;28;20462;-60
2021/09/21 01:12:31;;;;;;;0.68;0.68;;;;;;;;;;5085693;28;20459;-61
2021/09/21 01:14:57;;;;;;;1.15;0.77;;;;;;;;;;5066492;28;20411;-61
2021/09/21 01:17:23;;;;;;;0.80;0.70;;;;;;;;;;5084528;28;20469;-61
2021/09/21 01:19:49;;;;;;;0.70;0.70;;;;;;;;;;5079053;28;20050;-61
2021/09/21 01:22:15;;;;;;;0.50;0.50;;;;;;;;;;5064575;28;20419;-61
2021/09/21 01:24:42;;;;;;;0.70;0.70;;;;;;;;;;5063796;28;20021;-61
2021/09/21 01:27:09;;;;;;;0.90;0.90;;;;;;;;;;5064424;28;20438;-61
2021/09/21 01:29:36;;;;;;;0.70;0.70;;;;;;;;;;5064427;28;20479;-61
2021/09/21 01:32:03;;;;;;;0.80;0.80;;;;;;;;;;5066589;28;20108;-61
2021/09/21 01:34:29;;;;;;;1.13;0.80;;;;;;;;;;5068743;28;20388;-61
2021/09/21 01:36:55;;;;;;;0.60;0.60;;;;;;;;;;5068112;28;20033;-61
2021/09/21 01:39:22;;;;;;;0.60;0.60;;;;;;;;;;5068343;28;20382;-61
2021/09/21 01:41:48;;;;;;;0.88;0.70;;;;;;;;;;5068947;28;20029;-61
2021/09/21 01:44:17;;;;;;;0.70;0.70;;;;;;;;;;5068269;28;20049;-61
2021/09/21 01:46:45;;;;;;;0.70;0.70;;;;;;;;;;5068323;28;20750;-61
2021/09/21 01:49:13;;;;;;;0.60;0.60;;;;;;;;;;5067890;28;20555;-61
2021/09/21 01:51:42;;;;;;;0.82;0.82;;;;;;;;;;5068445;28;20043;-60
2021/09/21 01:54:27;;;;;;;0.80;0.80;;;;;;;;;;5068190;28;20021;-61
2021/09/21 01:59:38;;;;;;;0.75;0.75;;;;;;;;;;5068368;28;20521;-61
2021/09/21 02:02:04;;;;;;;0.80;0.80;;;;;;;;;;5068045;28;20020;-61
2021/09/21 02:04:30;;;;;;;1.10;1.00;;;;;;;;;;5074361;28;20073;-61
2021/09/21 02:06:57;;;;;;;1.27;1.10;;;;;;;;;;5088042;28;20103;-61
2021/09/21 02:09:24;;;;;;;0.90;0.90;;;;;;;;;;5069769;28;20082;-61
2021/09/21 02:11:50;;;;;;;1.35;0.90;;;;;;;;;;5088342;28;20454;-61
2021/09/21 02:14:18;;;;;;;0.70;0.70;;;;;;;;;;5088486;28;20332;-61
2021/09/21 02:16:45;;;;;;;0.90;0.90;;;;;;;;;;5087790;28;20043;-61
2021/09/21 02:19:12;;;;;;;0.80;0.80;;;;;;;;;;5086874;28;20028;-61
2021/09/21 02:21:38;;;;;;;1.02;0.85;;;;;;;;;;5088008;28;20028;-61
2021/09/21 02:24:05;;;;;;;0.95;0.95;;;;;;;;;;5087848;28;20051;-61
2021/09/21 02:26:31;;;;;;;0.88;0.82;;;;;;;;;;5087632;28;20027;-61
2021/09/21 02:28:57;;;;;;;0.77;0.77;;;;;;;;;;5065058;28;20027;-61
2021/09/21 02:31:23;;;;;;;0.80;0.80;;;;;;;;;;5067900;28;20488;-61
2021/09/21 02:33:49;;;;;;;1.23;0.95;;;;;;;;;;5066873;28;20467;-61
2021/09/21 02:36:16;;;;;;;1.02;0.93;;;;;;;;;;5067673;28;20434;-61
2021/09/21 02:38:42;;;;;;;0.90;0.90;;;;;;;;;;5067264;28;20031;-61
2021/09/21 02:41:09;;;;;;;0.90;0.80;;;;;;;;;;5067264;28;20033;-61
2021/09/21 02:43:36;;;;;;;1.45;1.00;;;;;;;;;;5067388;28;20024;-61
2021/09/21 02:46:03;;;;;;;1.58;0.90;;;;;;;;;;5067112;28;20029;-61
2021/09/21 02:48:30;;;;;;;1.13;0.90;;;;;;;;;;5067081;28;20035;-60
2021/09/21 02:50:57;;;;;;;0.82;0.82;;;;;;;;;;5066568;28;20039;-60
2021/09/21 02:53:23;;;;;;;1.13;0.73;;;;;;;;;;5066111;28;20032;-61
2021/09/21 02:55:49;;;;;;;1.15;1.00;;;;;;;;;;5067120;28;20029;-60
2021/09/21 02:58:15;;;;;;;0.90;0.90;;;;;;;;;;5067527;28;20284;-60
2021/09/21 03:00:43;;;;;;;0.85;0.80;;;;;;;;;;5066821;28;20488;-60
2021/09/21 03:03:09;;;;;;;0.80;0.80;;;;;;;;;;5066453;28;20024;-60
2021/09/21 03:05:43;;;;;;;1.90;0.95;;;;;;;;;;5066961;28;20040;-61
2021/09/21 03:18:32;;;;;;;0.88;0.80;;;;;;;;;;5087153;28;20035;-61
2021/09/21 03:20:59;;;;;;;1.35;1.20;;;;;;;;;;5085452;28;20032;-60
2021/09/21 03:23:25;;;;;;;0.93;0.93;;;;;;;;;;5087173;28;20043;-61
2021/09/21 03:25:51;;;;;;;1.67;1.02;;;;;;;;;;5068579;28;20039;-61
2021/09/21 03:28:18;;;;;;;1.10;1.00;;;;;;;;;;5085830;28;20410;-60
2021/09/21 03:30:44;;;;;;;1.08;0.98;;;;;;;;;;5087069;28;20028;-61
2021/09/21 03:33:11;;;;;;;1.15;0.90;;;;;;;;;;5086905;28;20024;-61
2021/09/21 03:35:37;;;;;;;1.25;1.15;;;;;;;;;;5086507;28;20032;-61
2021/09/21 03:38:03;;;;;;;1.20;1.10;;;;;;;;;;5084993;28;20492;-61
2021/09/21 03:40:30;;;;;;;1.30;1.20;;;;;;;;;;5086514;28;20035;-61
2021/09/21 03:42:56;;;;;;;1.08;1.02;;;;;;;;;;5085953;28;20077;-61
2021/09/21 03:45:24;;;;;;;0.90;0.90;;;;;;;;;;5086294;28;20024;-61
2021/09/21 03:47:51;;;;;;;5.10;1.10;;;;;;;;;;5086529;28;20383;-61
2021/09/21 03:50:18;;;;;;;1.35;1.25;;;;;;;;;;5086214;28;20020;-60
2021/09/21 03:52:44;;;;;;;1.10;1.00;;;;;;;;;;5086904;28;20051;-60
2021/09/21 03:55:11;;;;;;;1.30;1.20;;;;;;;;;;5085392;28;20112;-61
2021/09/21 03:57:38;;;;;;;1.42;1.33;;;;;;;;;;5086403;28;20028;-60
2021/09/21 04:00:05;;;;;;;1.15;1.05;;;;;;;;;;5085658;28;20028;-60
2021/09/21 04:02:31;;;;;;;2.00;1.17;;;;;;;;;;5085848;28;20059;-61
2021/09/21 04:04:57;;;;;;;1.38;1.20;;;;;;;;;;5070815;28;20059;-60
2021/09/21 04:07:22;;;;;;;1.50;1.40;;;;;;;;;;5065908;28;20020;-60
2021/09/21 04:09:49;;;;;;;1.60;1.50;;;;;;;;;;5066195;28;20032;-61
2021/09/21 04:12:16;;;;;;;1.20;1.10;;;;;;;;;;5066253;28;20082;-61
2021/09/21 04:14:43;;;;;;;1.40;1.30;;;;;;;;;;5066083;28;20043;-61
2021/09/21 04:17:10;;;;;;;1.27;1.17;;;;;;;;;;5065502;28;20103;-61
2021/09/21 04:19:36;;;;;;;1.50;1.40;;;;;;;;;;5073349;28;20031;-61
2021/09/21 04:22:03;;;;;;;1.55;1.45;;;;;;;;;;5085516;28;20035;-61
2021/09/21 04:24:29;;;;;;;1.52;1.27;;;;;;;;;;5085670;28;20107;-61
2021/09/21 04:26:55;;;;;;;1.92;1.60;;;;;;;;;;5085317;28;20493;-60
2021/09/21 04:29:21;;;;;;;1.70;1.60;;;;;;;;;;5085615;28;20028;-61
2021/09/21 04:31:48;;;;;;;1.63;1.50;;;;;;;;;;5086263;28;20107;-61
2021/09/21 04:34:16;;;;;;;1.52;1.42;;;;;;;;;;5085671;28;20032;-60
2021/09/21 04:36:42;;;;;;;1.83;1.73;;;;;;;;;;5085546;28;20033;-61
2021/09/21 04:39:08;;;;;;;1.45;1.30;;;;;;;;;;5085209;28;20028;-61
2021/09/21 04:41:34;;;;;;;2.22;1.85;;;;;;;;;;5085405;28;20453;-60
2021/09/21 04:44:01;;;;;;;1.42;1.33;;;;;;;;;;5085470;28;20131;-61
2021/09/21 04:46:27;;;;;;;1.95;1.75;;;;;;;;;;5085485;28;20031;-60
2021/09/21 04:48:53;;;;;;;1.70;1.60;;;;;;;;;;5084998;28;20076;-60
2021/09/21 04:51:19;;;;;;;1.85;1.65;;;;;;;;;;5085916;28;20557;-60
2021/09/21 04:53:45;;;;;;;1.63;1.52;;;;;;;;;;5086295;28;20033;-60
2021/09/21 04:56:11;;;;;;;2.40;2.00;;;;;;;;;;5084801;28;20399;-60
2021/09/21 04:58:37;;;;;;;2.17;1.80;;;;;;;;;;5085699;28;20492;-60
2021/09/21 05:01:03;;;;;;;1.67;1.58;;;;;;;;;;5065292;28;20036;-60
2021/09/21 05:03:29;;;;;;;1.67;1.58;;;;;;;;;;5064609;28;20024;-60
2021/09/21 05:05:55;;;;;;;1.70;1.60;;;;;;;;;;5064674;28;20025;-60
2021/09/21 05:08:21;;;;;;;1.67;1.42;;;;;;;;;;5064538;28;20097;-60
2021/09/21 05:10:47;;;;;;;1.58;1.40;;;;;;;;;;5065214;28;20024;-60
2021/09/21 05:13:14;;;;;;;1.92;1.35;;;;;;;;;;5065199;28;20032;-60
2021/09/21 05:15:40;;;;;;;1.52;1.42;;;;;;;;;;5064720;28;20344;-60
2021/09/21 05:18:07;;;;;;;1.40;1.30;;;;;;;;;;5064598;28;20415;-61
2021/09/21 05:20:34;;;;;;;1.48;1.38;;;;;;;;;;5063811;28;20035;-61
2021/09/21 05:23:02;;;;;;;1.60;1.38;;;;;;;;;;5064547;28;20112;-60
2021/09/21 05:25:28;;;;;;;1.25;1.15;;;;;;;;;;5064152;28;20721;-60
2021/09/21 05:27:55;;;;;;;1.15;1.00;;;;;;;;;;5064713;28;20051;-61
2021/09/21 05:30:21;;;;;;;1.42;1.33;;;;;;;;;;5064455;28;20047;-61
2021/09/21 05:32:48;;;;;;;1.30;1.20;;;;;;;;;;5064883;28;20454;-61
2021/09/21 05:35:14;;;;;;;1.17;1.10;;;;;;;;;;5065210;28;20035;-61
2021/09/21 05:37:41;;;;;;;1.20;1.10;;;;;;;;;;5064712;28;20510;-60
2021/09/21 05:40:08;;;;;;;1.33;1.23;;;;;;;;;;5064532;28;20098;-60
2021/09/21 05:42:36;;;;;;;1.33;1.05;;;;;;;;;;5064731;28;20029;-60
2021/09/21 05:45:03;;;;;;;1.70;1.20;;;;;;;;;;5064208;28;20074;-60
2021/09/21 05:47:30;;;;;;;1.10;1.00;;;;;;;;;;5064865;28;20418;-60
2021/09/21 05:49:57;;;;;;;1.13;1.02;;;;;;;;;;5046447;28;20032;-60
2021/09/21 05:52:24;;;;;;;1.52;1.40;;;;;;;;;;5069890;28;20023;-61
2021/09/21 05:54:50;;;;;;;1.40;1.30;;;;;;;;;;5074513;28;20021;-60
2021/09/21 05:57:17;;;;;;;1.30;1.20;;;;;;;;;;5065741;28;20074;-60
2021/09/21 05:59:43;;;;;;;1.30;1.20;;;;;;;;;;5066019;28;20028;-60
2021/09/21 06:02:09;;;;;;;1.80;1.40;;;;;;;;;;5065289;28;20115;-60
2021/09/21 06:04:35;;;;;;;1.45;1.35;;;;;;;;;;5065711;28;20521;-60
2021/09/21 06:07:01;;;;;;;1.10;1.00;;;;;;;;;;5065501;28;20025;-60
2021/09/21 06:09:27;;;;;;;1.25;1.08;;;;;;;;;;5070115;28;20032;-60
2021/09/21 06:11:53;;;;;;;1.45;1.08;;;;;;;;;;5063779;28;20034;-60
2021/09/21 06:14:19;;;;;;;1.40;1.30;;;;;;;;;;5064216;28;20396;-60
2021/09/21 06:16:45;;;;;;;2.17;1.50;;;;;;;;;;5066274;28;20592;-60
2021/09/21 06:19:11;;;;;;;1.60;1.40;;;;;;;;;;5075134;28;20077;-60
2021/09/21 06:21:37;;;;;;;1.00;1.00;;;;;;;;;;5077936;28;20063;-60
2021/09/21 06:24:04;;;;;;;1.05;0.95;;;;;;;;;;5068814;28;20025;-60
2021/09/21 06:26:32;;;;;;;1.25;1.15;;;;;;;;;;5069584;28;20032;-60
2021/09/21 06:28:58;;;;;;;1.20;1.10;;;;;;;;;;5068569;28;20111;-60
2021/09/21 06:31:24;;;;;;;1.20;1.10;;;;;;;;;;5067584;28;20472;-60
2021/09/21 06:33:50;;;;;;;1.00;0.90;;;;;;;;;;5064330;28;20032;-60
2021/09/21 06:36:17;;;;;;;0.85;0.85;;;;;;;;;;5083945;28;20384;-60
2021/09/21 06:38:43;;;;;;;1.10;1.00;;;;;;;;;;5089761;28;20032;-61
2021/09/21 06:41:09;;;;;;;1.10;1.00;;;;;;;;;;5085369;28;20020;-60
2021/09/21 06:43:35;;;;;;;0.75;0.75;;;;;;;;;;5080562;28;20807;-60
2021/09/21 06:46:01;;;;;;;0.90;0.90;;;;;;;;;;5068663;28;20033;-60
2021/09/21 06:48:27;;;;;;;0.80;0.80;;;;;;;;;;5074735;28;20056;-60
2021/09/21 06:50:54;;;;;;;0.80;0.80;;;;;;;;;;5088685;28;20521;-60
2021/09/21 06:53:20;;;;;;;1.02;0.93;;;;;;;;;;5089308;28;20032;-60
2021/09/21 06:55:46;;;;;;;0.80;0.80;;;;;;;;;;5072695;28;20039;-60
2021/09/21 06:58:12;;;;;;;0.70;0.70;;;;;;;;;;5068941;28;20092;-60
2021/09/21 07:00:40;;;;;;;0.70;0.70;;;;;;;;;;5065553;28;20387;-60
2021/09/21 07:03:07;;;;;;;0.90;0.90;;;;;;;;;;5067229;28;20070;-60
2021/09/21 07:05:33;;;;;;;0.75;0.75;;;;;;;;;;5069551;28;20028;-60
2021/09/21 07:08:00;;;;;;;0.80;0.80;;;;;;;;;;5066128;28;20086;-60
2021/09/21 07:10:26;;;;;;;0.80;0.80;;;;;;;;;;5067748;28;20160;-59
2021/09/21 07:12:52;;;;;;;2.42;0.85;;;;;;;;;;5064370;28;20739;-60
2021/09/21 07:15:22;;;;;;;1.25;1.08;;;;;;;;;;5069900;28;20028;-60
2021/09/21 07:17:48;;;;;;;1.10;1.00;;;;;;;;;;5087908;28;20024;-60
2021/09/21 07:20:14;;;;;;;0.80;0.80;;;;;;;;;;5068394;28;20106;-60
2021/09/21 07:22:41;;;;;;;0.70;0.70;;;;;;;;;;5068174;28;20028;-59
2021/09/21 07:25:07;;;;;;;1.10;1.00;;;;;;;;;;5068909;28;20027;-59
2021/09/21 07:27:33;;;;;;;0.82;0.82;;;;;;;;;;5068979;28;20025;-60
2021/09/21 07:30:00;;;;;;;1.02;0.90;;;;;;;;;;5076977;28;20028;-60
2021/09/21 07:32:26;;;;;;;0.98;0.88;;;;;;;;;;5049276;28;20036;-60
2021/09/21 07:34:53;;;;;;;1.02;0.93;;;;;;;;;;5063467;28;20028;-60
2021/09/21 07:37:19;;;;;;;0.70;0.70;;;;;;;;;;5067761;28;20522;-60
2021/09/21 07:39:46;;;;;;;0.95;0.80;;;;;;;;;;5069297;28;20570;-60
2021/09/21 07:42:13;;;;;;;0.88;0.80;;;;;;;;;;5068290;28;20061;-59
2021/09/21 07:44:40;;;;;;;0.70;0.70;;;;;;;;;;5068289;28;20040;-60
2021/09/21 07:47:06;;;;;;;0.73;0.73;;;;;;;;;;5068475;28;20408;-60
2021/09/21 07:49:32;;;;;;;0.80;0.80;;;;;;;;;;5068144;28;20107;-59
2021/09/21 07:51:58;;;;;;;0.90;0.90;;;;;;;;;;5068450;28;20059;-59
2021/09/21 07:54:24;;;;;;;1.10;0.90;;;;;;;;;;5068482;28;20032;-59
2021/09/21 07:56:50;;;;;;;0.63;0.63;;;;;;;;;;5052256;28;20032;-59
2021/09/21 07:59:16;;;;;;;0.80;0.80;;;;;;;;;;5048758;28;20032;-59
2021/09/21 08:01:42;;;;;;;0.50;0.50;;;;;;;;;;5048497;28;20112;-59
2021/09/21 08:04:08;;;;;;;0.90;0.80;;;;;;;;;;5047731;28;20033;-60
2021/09/21 08:06:34;;;;;;;0.80;0.70;;;;;;;;;;5048350;28;20025;-60
2021/09/21 08:09:00;;;;;;;0.60;0.60;;;;;;;;;;5048083;28;20735;-59
2021/09/21 08:11:27;;;;;;;0.70;0.70;;;;;;;;;;5050270;28;20473;-59
2021/09/21 08:13:53;;;;;;;0.82;0.82;;;;;;;;;;5066015;28;20093;-59
2021/09/21 08:16:19;;;;;;;0.70;0.70;;;;;;;;;;5063604;28;20028;-59
2021/09/21 08:18:46;;;;;;;0.70;0.70;;;;;;;;;;5048769;28;20389;-60
2021/09/21 08:21:12;;;;;;;0.70;0.70;;;;;;;;;;5047900;28;20032;-60
2021/09/21 08:23:38;;;;;;;0.50;0.50;;;;;;;;;;5048045;28;20175;-59
2021/09/21 08:26:04;;;;;;;0.60;0.60;;;;;;;;;;5047169;28;20376;-59
2021/09/21 08:28:30;;;;;;;0.70;0.70;;;;;;;;;;5047624;28;20831;-59
2021/09/21 08:30:56;;;;;;;0.93;0.90;;;;;;;;;;5047552;28;20025;-59
2021/09/21 08:33:23;;;;;;;0.77;0.77;;;;;;;;;;5065650;28;20032;-59
2021/09/21 08:35:49;;;;;;;0.98;0.90;;;;;;;;;;5067810;28;20029;-59
2021/09/21 08:38:15;;;;;;;1.05;0.95;;;;;;;;;;5067988;28;20020;-60
2021/09/21 08:40:41;;;;;;;1.23;0.73;;;;;;;;;;5067444;28;20030;-59
2021/09/21 08:43:07;;;;;;;0.90;0.90;;;;;;;;;;5067296;28;20563;-60
2021/09/21 08:45:33;;;;;;;0.90;0.90;;;;;;;;;;5067552;28;20017;-60
2021/09/21 08:48:01;;;;;;;1.02;0.90;;;;;;;;;;5067134;28;20025;-60
2021/09/21 08:50:27;;;;;;;0.80;0.80;;;;;;;;;;5066538;28;20048;-59
2021/09/21 08:52:53;;;;;;;0.50;0.50;;;;;;;;;;5048226;28;20066;-60
2021/09/21 08:55:19;;;;;;;0.70;0.70;;;;;;;;;;5048486;28;20017;-60
2021/09/21 08:57:46;;;;;;;0.70;0.70;;;;;;;;;;5066636;28;20429;-60
2021/09/21 09:00:14;;;;;;;0.75;0.70;;;;;;;;;;5066212;28;20389;-59
2021/09/21 09:02:41;;;;;;;1.08;0.98;;;;;;;;;;5065685;28;20032;-60
2021/09/21 09:05:08;;;;;;;0.70;0.70;;;;;;;;;;5065939;28;20099;-60
2021/09/21 09:07:36;;;;;;;0.90;0.90;;;;;;;;;;5065999;28;20039;-59
2021/09/21 09:10:04;;;;;;;0.73;0.73;;;;;;;;;;5065616;28;20078;-59
2021/09/21 09:12:34;;;;;;;0.88;0.80;;;;;;;;;;5065410;28;20028;-59
2021/09/21 09:15:13;;;;;;;0.90;0.90;;;;;;;;;;5063993;28;20021;-60
2021/09/21 09:17:52;;;;;;;1.25;0.73;;;;;;;;;;5064746;28;20032;-59
2021/09/21 09:20:18;;;;;;;0.60;0.60;;;;;;;;;;5065922;28;20029;-59
2021/09/21 09:22:45;;;;;;;0.95;0.85;;;;;;;;;;5066347;28;20028;-59
2021/09/21 09:25:12;;;;;;;0.80;0.80;;;;;;;;;;5065711;28;20074;-59
2021/09/21 09:27:39;;;;;;;0.70;0.70;;;;;;;;;;5065866;28;20570;-59
2021/09/21 09:30:07;;;;;;;0.73;0.73;;;;;;;;;;5065697;28;20028;-59
2021/09/21 09:32:46;;;;;;;0.82;0.82;;;;;;;;;;5066110;28;20496;-59
2021/09/21 09:35:34;;;;;;;1.08;0.93;;;;;;;;;;5066237;28;20025;-59
2021/09/21 09:38:01;;;;;;;0.73;0.73;;;;;;;;;;5065137;28;20052;-59
2021/09/21 09:40:28;;;;;;;0.85;0.80;;;;;;;;;;5065632;28;20196;-59
2021/09/21 09:42:55;;;;;;;0.90;0.57;;;;;;;;;;5065214;28;20032;-59
2021/09/21 09:45:47;;;;;;;1.00;0.90;;;;;;;;;;5065668;28;20033;-59
2021/09/21 09:48:15;;;;;;;0.70;0.70;;;;;;;;;;5062442;28;20074;-59
2021/09/21 09:50:42;;;;;;;0.80;0.80;;;;;;;;;;5065277;28;20064;-59
2021/09/21 09:53:16;;;;;;;0.98;0.90;;;;;;;;;;5066791;28;20056;-59
2021/09/21 09:55:44;;;;;;;1.50;0.90;;;;;;;;;;5069527;28;20077;-59
2021/09/21 09:58:10;;;;;;;0.90;0.90;;;;;;;;;;5078384;28;20285;-59
2021/09/21 10:00:37;;;;;;;0.82;0.82;;;;;;;;;;5090860;28;20024;-59
2021/09/21 10:03:03;;;;;;;0.80;0.80;;;;;;;;;;5090136;28;20028;-59
2021/09/21 10:05:30;;;;;;;0.60;0.60;;;;;;;;;;5074117;28;20025;-59
2021/09/21 10:07:57;;;;;;;0.55;0.55;;;;;;;;;;5070042;28;20085;-59
2021/09/21 10:10:24;;;;;;;0.82;0.82;;;;;;;;;;5070502;28;20379;-60
2021/09/21 10:12:50;;;;;;;1.00;0.90;;;;;;;;;;5070128;28;20025;-59
2021/09/21 10:15:16;;;;;;;0.70;0.70;;;;;;;;;;5066085;28;20039;-60
2021/09/21 10:17:49;;;;;;;0.68;0.60;;;;;;;;;;5069895;28;20040;-59
2021/09/21 10:20:15;;;;;;;0.60;0.60;;;;;;;;;;5070067;28;20146;-59
2021/09/21 10:22:42;;;;;;;0.90;0.65;;;;;;;;;;5057737;28;20427;-59
2021/09/21 10:25:11;;;;;;;0.90;0.82;;;;;;;;;;5061191;28;20116;-59
2021/09/21 10:27:38;;;;;;;0.68;0.68;;;;;;;;;;5068856;28;20028;-60
2021/09/21 10:30:06;;;;;;;0.60;0.60;;;;;;;;;;5068350;28;20074;-60
2021/09/21 10:32:41;;;;;;;0.80;0.60;;;;;;;;;;5068501;28;20427;-59
2021/09/21 10:35:09;;;;;;;0.57;0.57;;;;;;;;;;5068463;28;20036;-60
2021/09/21 10:37:35;;;;;;;0.70;0.70;;;;;;;;;;5068910;28;20032;-59
2021/09/21 10:40:02;;;;;;;0.60;0.60;;;;;;;;;;5068272;28;20364;-59
2021/09/21 10:42:28;;;;;;;0.88;0.88;;;;;;;;;;5068759;28;20041;-59
2021/09/21 10:44:57;;;;;;;0.90;0.70;;;;;;;;;;5068328;28;20039;-59
2021/09/21 10:47:25;;;;;;;0.80;0.80;;;;;;;;;;5068941;28;20560;-59
2021/09/21 10:49:51;;;;;;;0.80;0.80;;;;;;;;;;5068514;28;20063;-59
2021/09/21 10:52:19;;;;;;;0.65;0.65;;;;;;;;;;5069406;28;20521;-59
2021/09/21 10:54:53;;;;;;;0.70;0.65;;;;;;;;;;5069638;28;20044;-59
2021/09/21 10:57:30;;;;;;;0.80;0.80;;;;;;;;;;5067630;28;20032;-59
2021/09/21 10:59:57;;;;;;;0.75;0.75;;;;;;;;;;5080750;28;20020;-59
2021/09/21 11:02:25;;;;;;;0.80;0.80;;;;;;;;;;5073579;28;20039;-59
2021/09/21 11:04:51;;;;;;;1.48;0.80;;;;;;;;;;5066741;28;20021;-58
2021/09/21 11:07:17;;;;;;;0.70;0.70;;;;;;;;;;5069060;28;20036;-59
2021/09/21 11:09:49;;;;;;;0.70;0.70;;;;;;;;;;5070158;28;20034;-59
2021/09/21 11:12:16;;;;;;;1.05;0.90;;;;;;;;;;5069912;28;20081;-60
2021/09/21 11:14:43;;;;;;;0.60;0.60;;;;;;;;;;5086483;28;20077;-60
2021/09/21 11:17:11;;;;;;;0.68;0.68;;;;;;;;;;5069597;28;20032;-60
2021/09/21 11:19:38;;;;;;;0.82;0.82;;;;;;;;;;5086442;28;20089;-60
2021/09/21 11:22:05;;;;;;;1.15;0.90;;;;;;;;;;5086500;28;20016;-60
2021/09/21 11:24:31;;;;;;;1.33;1.00;;;;;;;;;;5084531;28;20020;-60
2021/09/21 11:27:02;;;;;;;1.05;0.90;;;;;;;;;;5042941;28;20074;-60
2021/09/21 11:29:30;;;;;;;1.13;0.98;;;;;;;;;;5046222;28;20606;-60
2021/09/21 11:31:56;;;;;;;1.42;1.00;;;;;;;;;;5058427;28;20028;-60
2021/09/21 11:34:27;;;;;;;0.90;0.90;;;;;;;;;;5047937;28;20036;-60
2021/09/21 11:36:53;;;;;;;0.70;0.70;;;;;;;;;;5047987;28;20025;-60
2021/09/21 11:39:20;;;;;;;0.60;0.60;;;;;;;;;;5065677;28;20031;-60
2021/09/21 11:41:53;;;;;;;1.10;1.00;;;;;;;;;;5066343;28;20484;-60
2021/09/21 11:44:19;;;;;;;0.95;0.85;;;;;;;;;;5086803;28;20020;-60
2021/09/21 11:46:45;;;;;;;0.82;0.82;;;;;;;;;;5068759;28;20503;-60
2021/09/21 11:49:11;;;;;;;0.60;0.60;;;;;;;;;;5084832;28;20103;-60
2021/09/21 11:51:38;;;;;;;0.60;0.60;;;;;;;;;;5067857;28;20526;-60
2021/09/21 11:54:05;;;;;;;0.52;0.52;;;;;;;;;;5069826;28;20027;-60
2021/09/21 11:56:31;;;;;;;0.80;0.80;;;;;;;;;;5067407;28;20032;-60
2021/09/21 11:59:01;;;;;;;0.60;0.60;;;;;;;;;;5081843;28;20453;-60
2021/09/21 12:01:30;;;;;;;0.90;0.90;;;;;;;;;;5069061;28;20039;-60
2021/09/21 12:03:56;;;;;;;0.65;0.60;;;;;;;;;;5084878;28;20024;-60
2021/09/21 12:06:32;;;;;;;0.63;0.63;;;;;;;;;;5085744;28;20034;-60
2021/09/21 12:09:00;;;;;;;0.70;0.70;;;;;;;;;;5084508;28;20039;-60
2021/09/21 12:11:27;;;;;;;0.70;0.70;;;;;;;;;;5074924;28;20032;-60
2021/09/21 12:13:53;;;;;;;0.50;0.50;;;;;;;;;;5085351;28;20453;-59
2021/09/21 12:16:20;;;;;;;0.60;0.60;;;;;;;;;;5083601;28;20263;-59
2021/09/21 12:18:46;;;;;;;0.75;0.73;;;;;;;;;;5065366;28;20451;-59
2021/09/21 12:21:14;;;;;;;1.02;0.93;;;;;;;;;;5062599;28;20028;-60
2021/09/21 12:23:42;;;;;;;0.45;0.45;;;;;;;;;;5047183;28;20028;-60
2021/09/21 12:26:09;;;;;;;0.80;0.57;;;;;;;;;;5046728;28;20035;-60
2021/09/21 12:28:40;;;;;;;1.85;0.70;;;;;;;;;;5064683;28;20028;-60
2021/09/21 12:31:12;;;;;;;0.80;0.60;;;;;;;;;;5044705;28;20419;-60
2021/09/21 12:33:39;;;;;;;0.88;0.57;;;;;;;;;;5056874;28;20028;-59
2021/09/21 12:36:07;;;;;;;0.82;0.57;;;;;;;;;;5084045;28;20031;-58
2021/09/21 12:38:33;;;;;;;0.77;0.77;;;;;;;;;;5085039;28;20027;-58
2021/09/21 12:41:00;;;;;;;1.52;0.90;;;;;;;;;;5064263;28;20035;-58
2021/09/21 12:43:41;;;;;;;0.80;0.80;;;;;;;;;;5064739;28;20126;-58
2021/09/21 12:46:07;;;;;;;1.00;0.90;;;;;;;;;;5064462;28;20115;-58
2021/09/21 12:48:36;;;;;;;0.90;0.90;;;;;;;;;;5077349;28;20437;-58
2021/09/21 12:51:04;;;;;;;1.33;1.10;;;;;;;;;;5082799;28;20448;-58
2021/09/21 12:53:30;;;;;;;1.17;1.08;;;;;;;;;;5084912;28;20099;-58
2021/09/21 12:55:58;;;;;;;1.10;1.00;;;;;;;;;;5065784;28;20036;-58
2021/09/21 12:58:26;;;;;;;0.90;0.90;;;;;;;;;;5077529;28;20077;-58
2021/09/21 13:00:52;;;;;;;1.65;1.50;;;;;;;;;;5084129;28;20073;-58
2021/09/21 13:03:21;;;;;;;1.00;1.00;;;;;;;;;;5084308;28;20024;-58
2021/09/21 13:05:47;;;;;;;1.52;1.10;;;;;;;;;;5085475;28;20077;-58
2021/09/21 13:08:13;;;;;;;0.95;0.85;;;;;;;;;;5065509;28;20119;-58
2021/09/21 13:10:41;;;;;;;0.80;0.80;;;;;;;;;;5084342;28;20048;-58
2021/09/21 13:13:07;;;;;;;0.80;0.80;;;;;;;;;;5084354;28;20517;-58
2021/09/21 13:15:33;;;;;;;0.75;0.75;;;;;;;;;;5083081;28;20032;-58
2021/09/21 13:18:01;;;;;;;0.88;0.88;;;;;;;;;;5082987;28;20020;-58
2021/09/21 13:20:28;;;;;;;1.02;0.90;;;;;;;;;;5084566;28;20024;-58
2021/09/21 13:22:54;;;;;;;1.15;1.00;;;;;;;;;;5084246;28;20024;-58
2021/09/21 13:25:21;;;;;;;0.70;0.70;;;;;;;;;;5084402;28;20097;-58
2021/09/21 13:27:48;;;;;;;0.90;0.90;;;;;;;;;;5065511;28;20085;-56
2021/09/21 13:30:15;;;;;;;0.80;0.80;;;;;;;;;;5088985;28;20487;-58
2021/09/21 13:32:42;;;;;;;0.93;0.93;;;;;;;;;;5086834;28;20028;-58
2021/09/21 13:35:09;;;;;;;0.70;0.70;;;;;;;;;;5086725;28;20039;-58
2021/09/21 13:37:35;;;;;;;0.82;0.82;;;;;;;;;;5086894;28;20533;-58
2021/09/21 13:40:02;;;;;;;0.80;0.80;;;;;;;;;;5060976;28;20121;-58
2021/09/21 13:42:28;;;;;;;0.80;0.80;;;;;;;;;;5056438;28;20139;-58
2021/09/21 13:44:54;;;;;;;0.73;0.73;;;;;;;;;;5029472;28;20114;-59
2021/09/21 13:47:20;;;;;;;0.70;0.70;;;;;;;;;;5066494;28;20024;-59
2021/09/21 13:49:46;;;;;;;0.80;0.80;;;;;;;;;;5058407;28;20040;-58
2021/09/21 13:52:12;;;;;;;0.70;0.70;;;;;;;;;;5088867;28;20028;-58
2021/09/21 13:54:38;;;;;;;0.70;0.70;;;;;;;;;;5088308;28;20032;-58
2021/09/21 13:57:04;;;;;;;0.77;0.77;;;;;;;;;;5082368;28;20027;-58
2021/09/21 13:59:32;;;;;;;0.88;0.65;;;;;;;;;;5048162;28;20028;-58
2021/09/21 14:02:04;;;;;;;0.95;0.80;;;;;;;;;;5049173;28;20053;-58
2021/09/21 14:04:31;;;;;;;0.80;0.80;;;;;;;;;;5049678;28;20034;-57
2021/09/21 14:06:58;;;;;;;0.90;0.90;;;;;;;;;;5048903;28;20307;-58
2021/09/21 14:09:25;;;;;;;0.63;0.63;;;;;;;;;;5067544;28;20059;-57
2021/09/21 14:11:51;;;;;;;0.95;0.90;;;;;;;;;;5082495;28;20040;-57
2021/09/21 14:14:17;;;;;;;0.70;0.70;;;;;;;;;;5087882;28;20047;-58
2021/09/21 14:16:43;;;;;;;0.70;0.70;;;;;;;;;;5088415;28;20020;-58
2021/09/21 14:19:09;;;;;;;0.73;0.73;;;;;;;;;;5067617;28;20078;-58
2021/09/21 14:21:36;;;;;;;0.70;0.70;;;;;;;;;;5087737;28;20024;-58
2021/09/21 14:24:04;;;;;;;0.70;0.70;;;;;;;;;;5087684;28;20085;-57
2021/09/21 14:26:30;;;;;;;1.10;1.00;;;;;;;;;;5069083;28;20157;-58
2021/09/21 14:28:56;;;;;;;0.80;0.80;;;;;;;;;;5086176;28;20495;-58
2021/09/21 14:31:22;;;;;;;0.80;0.80;;;;;;;;;;5087465;28;20494;-58
2021/09/21 14:33:49;;;;;;;1.38;0.90;;;;;;;;;;5049217;28;20522;-58
2021/09/21 14:36:15;;;;;;;0.80;0.80;;;;;;;;;;5062161;28;20052;-58
2021/09/21 14:38:41;;;;;;;0.80;0.80;;;;;;;;;;5066729;28;20446;-58
2021/09/21 14:41:07;;;;;;;0.85;0.85;;;;;;;;;;5066485;28;20031;-58
2021/09/21 14:43:38;;;;;;;0.70;0.70;;;;;;;;;;5066855;28;20353;-58
2021/09/21 14:46:08;;;;;;;0.88;0.82;;;;;;;;;;5079351;28;20472;-58
2021/09/21 14:48:34;;;;;;;1.10;0.90;;;;;;;;;;5088805;28;20093;-57
2021/09/21 14:51:01;;;;;;;1.13;1.10;;;;;;;;;;5070022;28;20032;-57
2021/09/21 14:53:27;;;;;;;1.08;0.90;;;;;;;;;;5082499;28;20111;-57
2021/09/21 14:55:53;;;;;;;1.13;1.02;;;;;;;;;;5065418;28;20048;-59